This is the latest recevied weather packets stored in our database for station/object K4AMF. If no packets are shown the sender has not sent any weather packets the latest 10 day(s).
| Time | Temp. | Humidity | Pressure | Rain* | Wind** | Luminosity | Snow |
|---|---|---|---|---|---|---|---|
| 1777597958 | 22.78° C | 90% | 1011 hPa | 0 mm | - | 0 W/m² | - |
| 1777597657 | 22.78° C | 90% | 1011.1 hPa | 0 mm | - | 0 W/m² | - |
| 1777597352 | 22.78° C | 90% | 1011.1 hPa | 0 mm | - | 0 W/m² | - |
| 1777597048 | 22.78° C | 90% | 1011.2 hPa | 0 mm | - | 0 W/m² | - |
| 1777596745 | 22.78° C | 90% | 1011.2 hPa | 0 mm | - | 0 W/m² | - |
| 1777596441 | 22.78° C | 90% | 1010.8 hPa | 0 mm | - | 0 W/m² | - |
| 1777596139 | 22.78° C | 90% | 1010.5 hPa | 0 mm | - | 0 W/m² | - |
| 1777595835 | 22.78° C | 89% | 1010.5 hPa | 0 mm | - | 0 W/m² | - |
| 1777595530 | 23.33° C | 87% | 1010.4 hPa | 0 mm | - | 0 W/m² | - |
| 1777595226 | 23.89° C | 85% | 1010.3 hPa | 0 mm | - | 0 W/m² | - |
| 1777594922 | 23.89° C | 83% | 1010.5 hPa | 0 mm | - | 0 W/m² | - |
| 1777594618 | 24.44° C | 82% | 1010.2 hPa | 0 mm | - | 0 W/m² | - |
| 1777594315 | 25° C | 80% | 1010.1 hPa | 0 mm | - | 0 W/m² | - |
| 1777594011 | 25.56° C | 79% | 1010.3 hPa | 0 mm | - | 0 W/m² | - |
| 1777593707 | 25.56° C | 79% | 1010.2 hPa | 0 mm | - | 0 W/m² | - |
| 1777593404 | 25.56° C | 78% | 1009.9 hPa | 0 mm | - | 0 W/m² | - |
| 1777593102 | 25.56° C | 78% | 1009.8 hPa | 0 mm | - | 0 W/m² | - |
| 1777592802 | 26.11° C | 75% | 1009.7 hPa | 0 mm | - | 2 W/m² | - |
| 1777592498 | 28.89° C | 63% | 1009.8 hPa | 0 mm | - | 2 W/m² | - |
| 1777592193 | 28.89° C | 59% | 1009.2 hPa | 0 mm | - | 2 W/m² | - |
| 1777591890 | 29.44° C | 58% | 1009 hPa | 0 mm | - | 6 W/m² | - |
| 1777591587 | 29.44° C | 57% | 1009 hPa | 0 mm | - | 10 W/m² | - |
| 1777591283 | 29.44° C | 56% | 1008.8 hPa | 0 mm | - | 21 W/m² | - |
| 1777590979 | 29.44° C | 56% | 1008.5 hPa | 0 mm | - | 32 W/m² | - |
| 1777590674 | 29.44° C | 56% | 1008.7 hPa | 0 mm | - | 32 W/m² | - |
* Rain latest hour (hover to see other rain measurements)
** Current wind speed in m/s (hover to see current wind gust speed)